createdAt,value
2018-08-11T00:00:28.004Z,0.00
2018-08-11T00:01:27.998Z,0.00
2018-08-11T00:02:27.993Z,0.00
2018-08-11T00:03:27.986Z,0.00
2018-08-11T00:04:27.981Z,0.00
2018-08-11T00:05:27.976Z,0.00
2018-08-11T00:06:27.974Z,0.00
2018-08-11T00:07:27.964Z,0.00
2018-08-11T00:08:27.958Z,0.00
2018-08-11T00:09:27.952Z,0.00
2018-08-11T00:10:27.947Z,0.00
2018-08-11T00:11:27.941Z,0.00
2018-08-11T00:12:27.936Z,0.00
2018-08-11T00:13:27.929Z,0.00
2018-08-11T00:14:27.925Z,0.00
2018-08-11T00:15:27.918Z,0.00
2018-08-11T00:16:27.913Z,0.00
2018-08-11T00:17:27.908Z,0.00
2018-08-11T00:18:27.903Z,0.00
2018-08-11T00:19:27.896Z,0.00
2018-08-11T00:20:27.890Z,0.00
2018-08-11T00:21:27.885Z,0.00
2018-08-11T00:22:27.879Z,0.00
2018-08-11T00:23:27.873Z,0.00
2018-08-11T00:24:27.868Z,0.00
2018-08-11T00:25:27.865Z,0.00
2018-08-11T00:26:27.862Z,0.00
2018-08-11T00:27:27.850Z,0.00
2018-08-11T00:28:27.845Z,0.00
2018-08-11T00:29:27.840Z,0.00
2018-08-11T00:30:27.837Z,0.00
2018-08-11T00:31:27.830Z,0.00
2018-08-11T00:32:27.823Z,0.00
2018-08-11T00:33:27.817Z,0.00
2018-08-11T00:34:27.816Z,0.00
2018-08-11T00:35:27.806Z,0.00
2018-08-11T00:36:27.834Z,0.00
2018-08-11T00:37:27.795Z,0.00
2018-08-11T00:38:27.790Z,0.00
2018-08-11T00:39:27.783Z,0.00
2018-08-11T00:40:27.778Z,0.00
2018-08-11T00:41:27.773Z,0.00
2018-08-11T00:42:27.767Z,0.00
2018-08-11T00:43:27.760Z,0.00
2018-08-11T00:44:27.756Z,0.00
2018-08-11T00:45:27.749Z,0.00
2018-08-11T00:46:27.747Z,0.00
2018-08-11T00:47:27.738Z,0.00
2018-08-11T00:48:27.733Z,0.00
2018-08-11T00:49:27.780Z,0.00
2018-08-11T00:50:27.721Z,0.00
2018-08-11T00:51:27.714Z,0.00
2018-08-11T00:52:27.707Z,0.00
2018-08-11T00:53:27.701Z,0.00
2018-08-11T00:54:27.695Z,0.00
2018-08-11T00:55:27.690Z,0.00
2018-08-11T00:56:27.681Z,0.00
2018-08-11T00:57:27.674Z,0.00
2018-08-11T00:58:27.668Z,0.00
2018-08-11T00:59:27.661Z,0.00
2018-08-11T01:00:27.656Z,0.00
2018-08-11T01:01:27.648Z,0.00
2018-08-11T01:02:27.683Z,0.00
2018-08-11T01:03:27.633Z,0.00
2018-08-11T01:04:27.626Z,0.00
2018-08-11T01:05:27.620Z,0.00
2018-08-11T01:06:27.616Z,0.00
2018-08-11T01:07:27.606Z,0.00
2018-08-11T01:08:27.599Z,0.00
2018-08-11T01:09:27.593Z,0.00
2018-08-11T01:10:27.589Z,0.00
2018-08-11T01:11:27.579Z,0.00
2018-08-11T01:12:27.571Z,0.00
2018-08-11T01:13:27.565Z,0.00
2018-08-11T01:14:27.557Z,0.00
2018-08-11T01:15:27.549Z,0.00
2018-08-11T01:16:27.542Z,0.00
2018-08-11T01:17:27.535Z,0.00
2018-08-11T01:18:27.528Z,0.00
2018-08-11T01:19:27.519Z,0.00
2018-08-11T01:20:27.512Z,0.00
2018-08-11T01:21:27.505Z,0.00
2018-08-11T01:22:27.498Z,0.00
2018-08-11T01:23:27.490Z,0.00
2018-08-11T01:24:27.483Z,0.00
2018-08-11T01:25:27.476Z,0.00
2018-08-11T01:26:27.468Z,0.00
2018-08-11T01:27:27.460Z,0.00
2018-08-11T01:28:27.453Z,0.00
2018-08-11T01:29:27.445Z,0.00
2018-08-11T01:30:27.438Z,0.00
2018-08-11T01:31:27.430Z,0.00
2018-08-11T01:32:27.424Z,0.00
2018-08-11T01:33:27.416Z,0.00
2018-08-11T01:34:27.413Z,0.00
2018-08-11T01:35:27.401Z,0.00
2018-08-11T01:36:27.394Z,0.00
2018-08-11T01:37:27.387Z,0.00
2018-08-11T01:38:27.384Z,0.00
2018-08-11T01:39:27.372Z,0.00
2018-08-11T01:40:27.365Z,0.00
2018-08-11T01:41:27.359Z,0.00
2018-08-11T01:42:27.352Z,0.00
2018-08-11T01:43:27.343Z,0.00
2018-08-11T01:44:27.337Z,0.00
2018-08-11T01:45:27.330Z,0.00
2018-08-11T01:46:27.323Z,0.00
2018-08-11T01:47:27.316Z,0.00
2018-08-11T01:48:27.308Z,0.00
2018-08-11T01:49:27.302Z,0.00
2018-08-11T01:50:27.299Z,0.00
2018-08-11T01:51:27.287Z,0.00
2018-08-11T01:52:27.281Z,0.00
2018-08-11T01:53:27.273Z,0.00
2018-08-11T01:54:27.267Z,0.00
2018-08-11T01:55:27.259Z,0.00
2018-08-11T01:56:27.252Z,0.00
2018-08-11T01:57:27.252Z,0.00
2018-08-11T01:58:27.239Z,0.00
2018-08-11T01:59:27.232Z,0.00
2018-08-11T02:00:27.227Z,0.00
2018-08-11T02:01:27.218Z,0.00
2018-08-11T02:02:27.211Z,0.00
2018-08-11T02:03:27.204Z,0.00
2018-08-11T02:04:27.197Z,0.00
2018-08-11T02:05:27.191Z,0.00
2018-08-11T02:06:27.185Z,0.00
2018-08-11T02:07:27.177Z,0.00
2018-08-11T02:08:27.171Z,0.00
2018-08-11T02:09:27.165Z,0.00
2018-08-11T02:10:27.157Z,0.00
2018-08-11T02:11:27.151Z,0.00
2018-08-11T02:12:27.144Z,0.00
2018-08-11T02:13:27.138Z,0.00
2018-08-11T02:14:27.134Z,0.00
2018-08-11T02:15:27.123Z,0.00
2018-08-11T02:16:27.117Z,0.00
2018-08-11T02:17:27.111Z,0.00
2018-08-11T02:18:27.104Z,0.00
2018-08-11T02:19:27.097Z,0.00
2018-08-11T02:20:27.091Z,0.00
2018-08-11T02:21:27.084Z,0.00
2018-08-11T02:22:27.077Z,0.00
2018-08-11T02:23:27.070Z,0.00
2018-08-11T02:24:27.065Z,0.00
2018-08-11T02:25:27.058Z,0.00
2018-08-11T02:26:27.052Z,0.00
2018-08-11T02:27:27.044Z,0.00
2018-08-11T02:28:27.038Z,0.00
2018-08-11T02:29:27.032Z,0.00
2018-08-11T02:30:27.025Z,0.00
2018-08-11T02:31:27.019Z,0.00
2018-08-11T02:32:27.012Z,0.00
2018-08-11T02:33:27.006Z,0.00
2018-08-11T02:34:27.038Z,0.00
2018-08-11T02:35:26.992Z,0.00
2018-08-11T02:36:26.986Z,0.00
2018-08-11T02:37:26.981Z,0.00
2018-08-11T02:38:26.973Z,0.00
2018-08-11T02:39:26.965Z,0.00
2018-08-11T02:40:26.962Z,0.00
2018-08-11T02:41:26.952Z,0.00
2018-08-11T02:42:26.945Z,0.00
2018-08-11T02:43:26.942Z,0.00
2018-08-11T02:44:26.931Z,0.00
2018-08-11T02:45:26.925Z,0.00
2018-08-11T02:46:26.921Z,0.00
2018-08-11T02:47:26.910Z,0.00
2018-08-11T02:48:26.903Z,0.00
2018-08-11T02:49:26.897Z,0.00
2018-08-11T02:50:26.890Z,0.00
2018-08-11T02:51:26.884Z,0.00
2018-08-11T02:52:26.875Z,0.00
2018-08-11T02:53:26.871Z,0.00
2018-08-11T02:54:26.861Z,0.00
2018-08-11T02:55:26.855Z,0.00
2018-08-11T02:56:26.846Z,0.00
2018-08-11T02:57:26.839Z,0.00
2018-08-11T02:58:26.831Z,0.00
2018-08-11T02:59:26.829Z,0.00
2018-08-11T03:00:26.817Z,0.00
2018-08-11T03:01:26.810Z,0.00
2018-08-11T03:02:26.876Z,0.00
2018-08-11T03:03:26.794Z,0.00
2018-08-11T03:04:26.788Z,0.00
2018-08-11T03:05:26.781Z,0.00
2018-08-11T03:06:26.773Z,0.00
2018-08-11T03:07:26.765Z,0.00
2018-08-11T03:08:26.758Z,0.00
2018-08-11T03:09:26.750Z,0.00
2018-08-11T03:10:26.744Z,0.00
2018-08-11T03:11:26.735Z,0.00
2018-08-11T03:12:26.728Z,0.00
2018-08-11T03:13:26.722Z,0.00
2018-08-11T03:14:26.714Z,0.00
2018-08-11T03:15:26.706Z,0.00
2018-08-11T03:16:26.699Z,0.00
2018-08-11T03:17:26.694Z,0.00
2018-08-11T03:18:26.685Z,0.00
2018-08-11T03:19:26.676Z,0.00
2018-08-11T03:20:26.669Z,0.00
2018-08-11T03:21:26.662Z,0.00
2018-08-11T03:22:26.655Z,0.00
2018-08-11T03:23:26.646Z,0.00
2018-08-11T03:24:26.657Z,0.00
2018-08-11T03:25:26.633Z,0.00
2018-08-11T03:26:26.626Z,0.00
2018-08-11T03:27:26.618Z,0.00
2018-08-11T03:28:26.611Z,0.00
2018-08-11T03:29:26.604Z,0.00
2018-08-11T03:30:26.598Z,0.00
2018-08-11T03:31:26.590Z,0.00
2018-08-11T03:32:26.583Z,0.00
2018-08-11T03:33:26.576Z,0.00
2018-08-11T03:34:26.569Z,0.00
2018-08-11T03:35:26.562Z,0.00
2018-08-11T03:36:26.555Z,0.00
2018-08-11T03:37:26.548Z,0.00
2018-08-11T03:38:26.542Z,0.00
2018-08-11T03:39:26.536Z,0.00
2018-08-11T03:40:26.528Z,0.00
2018-08-11T03:41:26.523Z,0.00
2018-08-11T03:42:26.515Z,0.00
2018-08-11T03:43:26.509Z,0.00
2018-08-11T03:44:26.500Z,0.00
2018-08-11T03:45:26.494Z,0.00
2018-08-11T03:46:26.487Z,0.00
2018-08-11T03:47:26.483Z,0.00
2018-08-11T03:48:26.478Z,0.00
2018-08-11T03:49:26.466Z,0.00
2018-08-11T03:50:26.459Z,0.00
2018-08-11T03:51:26.452Z,0.00
2018-08-11T03:52:26.502Z,0.00
2018-08-11T03:53:26.439Z,0.00
2018-08-11T03:54:26.434Z,0.00
2018-08-11T03:55:26.424Z,0.00
2018-08-11T03:56:26.419Z,0.00
2018-08-11T03:57:26.411Z,0.00
2018-08-11T03:58:26.404Z,0.00
2018-08-11T03:59:26.397Z,0.00
2018-08-11T04:00:26.391Z,0.00
2018-08-11T04:01:26.384Z,0.00
2018-08-11T04:02:26.377Z,0.00
2018-08-11T04:03:26.369Z,0.00
2018-08-11T04:04:26.362Z,0.00
2018-08-11T04:05:26.360Z,0.00
2018-08-11T04:06:26.349Z,0.00
2018-08-11T04:07:26.342Z,0.00
2018-08-11T04:08:26.335Z,0.00
2018-08-11T04:09:26.330Z,5.63
2018-08-11T04:10:26.322Z,5.63
2018-08-11T04:11:26.314Z,5.63
2018-08-11T04:12:26.309Z,5.63
2018-08-11T04:13:26.304Z,5.63
2018-08-11T04:14:26.294Z,5.63
2018-08-11T04:15:26.287Z,5.63
2018-08-11T04:16:26.280Z,11.25
2018-08-11T04:17:26.274Z,11.25
2018-08-11T04:18:26.267Z,11.25
2018-08-11T04:19:26.259Z,11.25
2018-08-11T04:20:26.252Z,11.25
2018-08-11T04:21:26.245Z,16.88
2018-08-11T04:22:26.239Z,16.88
2018-08-11T04:23:26.232Z,16.88
2018-08-11T04:24:26.224Z,16.88
2018-08-11T04:25:26.217Z,16.88
2018-08-11T04:26:26.211Z,22.50
2018-08-11T04:27:26.204Z,22.50
2018-08-11T04:28:26.196Z,22.50
2018-08-11T04:29:26.190Z,28.13
2018-08-11T04:30:26.185Z,28.13
2018-08-11T04:31:26.174Z,28.13
2018-08-11T04:32:26.168Z,28.13
2018-08-11T04:33:26.161Z,33.75
2018-08-11T04:34:26.153Z,33.75
2018-08-11T04:35:26.145Z,33.75
2018-08-11T04:36:26.140Z,39.38
2018-08-11T04:37:26.132Z,39.38
2018-08-11T04:38:26.125Z,39.38
2018-08-11T04:39:26.118Z,45.00
2018-08-11T04:40:26.111Z,45.00
2018-08-11T04:41:26.103Z,45.00
2018-08-11T04:42:26.096Z,50.63
2018-08-11T04:43:26.089Z,50.63
2018-08-11T04:44:26.082Z,50.63
2018-08-11T04:45:26.076Z,56.25
2018-08-11T04:46:26.071Z,56.25
2018-08-11T04:47:26.060Z,61.88
2018-08-11T04:48:26.053Z,61.88
2018-08-11T04:49:26.051Z,61.88
2018-08-11T04:50:26.042Z,61.88
2018-08-11T04:51:26.032Z,67.50
2018-08-11T04:52:26.025Z,67.50
2018-08-11T04:53:26.019Z,67.50
2018-08-11T04:54:26.011Z,73.13
2018-08-11T04:55:26.004Z,73.13
2018-08-11T04:56:25.997Z,73.13
2018-08-11T04:57:25.990Z,78.75
2018-08-11T04:58:25.983Z,78.75
2018-08-11T04:59:25.979Z,78.75
2018-08-11T05:00:25.969Z,78.75
2018-08-11T05:01:25.962Z,84.38
2018-08-11T05:02:25.955Z,84.38
2018-08-11T05:03:25.948Z,84.38
2018-08-11T05:04:25.945Z,90.00
2018-08-11T05:05:25.934Z,90.00
2018-08-11T05:06:25.927Z,90.00
2018-08-11T05:07:25.919Z,95.63
2018-08-11T05:08:25.912Z,95.63
2018-08-11T05:09:25.909Z,101.25
2018-08-11T05:10:25.899Z,101.25
2018-08-11T05:11:25.892Z,101.25
2018-08-11T05:12:25.884Z,101.25
2018-08-11T05:13:25.887Z,106.88
2018-08-11T05:14:25.873Z,112.50
2018-08-11T05:15:25.863Z,112.50
2018-08-11T05:16:25.856Z,112.50
2018-08-11T05:17:25.849Z,118.13
2018-08-11T05:18:25.842Z,123.75
2018-08-11T05:19:25.834Z,123.75
2018-08-11T05:20:25.828Z,135.00
2018-08-11T05:21:25.821Z,151.88
2018-08-11T05:22:25.814Z,157.50
2018-08-11T05:23:25.847Z,196.88
2018-08-11T05:24:25.800Z,174.38
2018-08-11T05:25:25.793Z,168.75
2018-08-11T05:26:25.788Z,168.75
2018-08-11T05:27:25.779Z,163.13
2018-08-11T05:28:25.772Z,174.38
2018-08-11T05:29:25.765Z,174.38
2018-08-11T05:30:25.759Z,191.25
2018-08-11T05:31:25.751Z,225.00
2018-08-11T05:32:25.745Z,180.00
2018-08-11T05:33:25.738Z,185.63
2018-08-11T05:34:25.732Z,180.00
2018-08-11T05:35:25.724Z,174.38
2018-08-11T05:36:25.718Z,163.13
2018-08-11T05:37:25.712Z,202.50
2018-08-11T05:38:25.705Z,191.25
2018-08-11T05:39:25.698Z,185.63
2018-08-11T05:40:25.692Z,191.25
2018-08-11T05:41:25.686Z,230.63
2018-08-11T05:42:25.679Z,270.00
2018-08-11T05:43:25.675Z,286.88
2018-08-11T05:44:25.665Z,315.00
2018-08-11T05:45:25.660Z,303.75
2018-08-11T05:46:25.653Z,303.75
2018-08-11T05:47:25.646Z,298.13
2018-08-11T05:48:25.640Z,281.25
2018-08-11T05:49:25.638Z,298.13
2018-08-11T05:50:25.628Z,281.25
2018-08-11T05:51:25.621Z,253.13
2018-08-11T05:52:25.615Z,264.38
2018-08-11T05:53:25.610Z,270.00
2018-08-11T05:54:25.629Z,337.50
2018-08-11T05:55:25.605Z,371.25
2018-08-11T05:56:25.591Z,337.50
2018-08-11T05:57:25.585Z,337.50
2018-08-11T05:58:25.579Z,337.50
2018-08-11T05:59:25.582Z,337.50
2018-08-11T06:00:25.567Z,315.00
2018-08-11T06:01:25.566Z,303.75
2018-08-11T06:02:25.556Z,326.25
2018-08-11T06:03:25.550Z,354.38
2018-08-11T06:04:25.545Z,376.88
2018-08-11T06:05:25.539Z,416.25
2018-08-11T06:06:25.533Z,399.38
2018-08-11T06:07:25.529Z,360.00
2018-08-11T06:08:25.522Z,309.38
2018-08-11T06:09:25.516Z,286.88
2018-08-11T06:10:25.515Z,241.88
2018-08-11T06:11:25.505Z,247.50
2018-08-11T06:12:25.499Z,320.63
2018-08-11T06:13:25.496Z,376.88
2018-08-11T06:14:25.506Z,337.50
2018-08-11T06:15:25.482Z,326.25
2018-08-11T06:16:25.477Z,315.00
2018-08-11T06:17:25.470Z,298.13
2018-08-11T06:18:25.465Z,281.25
2018-08-11T06:19:25.459Z,264.38
2018-08-11T06:20:25.456Z,275.63
2018-08-11T06:21:25.448Z,275.63
2018-08-11T06:22:25.442Z,281.25
2018-08-11T06:23:25.436Z,270.00
2018-08-11T06:24:25.430Z,258.75
2018-08-11T06:25:25.425Z,286.88
2018-08-11T06:26:25.419Z,309.38
2018-08-11T06:27:25.413Z,309.38
2018-08-11T06:28:25.410Z,303.75
2018-08-11T06:29:25.402Z,270.00
2018-08-11T06:30:25.396Z,281.25
2018-08-11T06:31:25.543Z,286.88
2018-08-11T06:32:25.390Z,286.88
2018-08-11T06:33:25.379Z,286.88
2018-08-11T06:34:25.374Z,286.88
2018-08-11T06:35:25.367Z,292.50
2018-08-11T06:36:25.362Z,320.63
2018-08-11T06:37:25.356Z,371.25
2018-08-11T06:38:25.350Z,388.13
2018-08-11T06:39:25.344Z,360.00
2018-08-11T06:40:25.403Z,309.38
2018-08-11T06:41:25.333Z,360.00
2018-08-11T06:42:25.328Z,365.63
2018-08-11T06:43:25.321Z,337.50
2018-08-11T06:44:25.316Z,331.88
2018-08-11T06:45:25.311Z,331.88
2018-08-11T06:46:25.306Z,354.38
2018-08-11T06:47:25.299Z,416.25
2018-08-11T06:48:25.294Z,416.25
2018-08-11T06:49:25.289Z,303.75
2018-08-11T06:50:25.284Z,275.63
2018-08-11T06:51:25.277Z,343.13
2018-08-11T06:52:25.274Z,376.88
2018-08-11T06:53:25.267Z,489.38
2018-08-11T06:54:25.265Z,585.00
2018-08-11T06:55:25.258Z,680.63
2018-08-11T06:56:25.251Z,556.88
2018-08-11T06:57:25.247Z,382.50
2018-08-11T06:58:25.241Z,444.38
2018-08-11T06:59:25.236Z,466.88
2018-08-11T07:00:25.231Z,337.50
2018-08-11T07:01:25.226Z,320.63
2018-08-11T07:02:25.222Z,393.75
2018-08-11T07:03:25.216Z,405.00
2018-08-11T07:04:25.217Z,405.00
2018-08-11T07:05:25.208Z,466.88
2018-08-11T07:06:25.208Z,562.50
2018-08-11T07:07:25.200Z,483.75
2018-08-11T07:08:25.194Z,388.13
2018-08-11T07:09:25.190Z,382.50
2018-08-11T07:10:25.188Z,393.75
2018-08-11T07:11:25.181Z,393.75
2018-08-11T07:12:25.177Z,416.25
2018-08-11T07:13:25.174Z,416.25
2018-08-11T07:14:25.169Z,416.25
2018-08-11T07:15:25.276Z,416.25
2018-08-11T07:16:25.161Z,686.25
2018-08-11T07:17:25.157Z,984.38
2018-08-11T07:18:25.154Z,1361.25
2018-08-11T07:19:25.151Z,1805.63
2018-08-11T07:20:25.148Z,1828.13
2018-08-11T07:21:25.258Z,1771.88
2018-08-11T07:22:25.145Z,1800.00
2018-08-11T07:23:25.142Z,1895.63
2018-08-11T07:24:25.141Z,1372.50
2018-08-11T07:25:25.145Z,1957.50
2018-08-11T07:26:25.150Z,1974.38
2018-08-11T07:27:25.140Z,2030.63
2018-08-11T07:28:25.139Z,2025.00
2018-08-11T07:29:25.140Z,1766.25
2018-08-11T07:30:25.144Z,2070.00
2018-08-11T07:31:25.141Z,2008.13
2018-08-11T07:32:25.142Z,2036.25
2018-08-11T07:33:25.146Z,2216.25
2018-08-11T07:34:25.151Z,2120.63
2018-08-11T07:35:25.148Z,1991.25
2018-08-11T07:36:25.328Z,2188.13
2018-08-11T07:37:25.153Z,2115.00
2018-08-11T07:38:25.156Z,1096.88
2018-08-11T07:39:25.157Z,2160.00
2018-08-11T07:40:25.160Z,2165.63
2018-08-11T07:41:25.163Z,2396.25
2018-08-11T07:42:25.170Z,2390.63
2018-08-11T07:43:25.223Z,2193.75
2018-08-11T07:44:25.174Z,1923.75
2018-08-11T07:45:25.178Z,2491.88
2018-08-11T07:46:25.183Z,2525.63
2018-08-11T07:47:25.189Z,1760.63
2018-08-11T07:48:25.191Z,2525.63
2018-08-11T07:49:25.195Z,2491.88
2018-08-11T07:50:25.220Z,540.00
2018-08-11T07:51:25.203Z,663.75
2018-08-11T07:52:25.207Z,450.00
2018-08-11T07:53:25.211Z,483.75
2018-08-11T07:54:25.214Z,652.50
2018-08-11T07:55:25.217Z,2593.13
2018-08-11T07:56:25.218Z,2700.00
2018-08-11T07:57:25.220Z,1732.50
2018-08-11T07:58:25.224Z,961.88
2018-08-11T07:59:25.225Z,950.63
2018-08-11T08:00:25.230Z,556.88
2018-08-11T08:01:25.274Z,804.38
2018-08-11T08:02:25.234Z,2272.50
2018-08-11T08:03:25.235Z,2846.25
2018-08-11T08:04:25.237Z,2863.13
2018-08-11T08:05:25.243Z,2261.25
2018-08-11T08:06:25.242Z,742.50
2018-08-11T08:07:25.244Z,2835.00
2018-08-11T08:08:25.250Z,916.88
2018-08-11T08:09:25.263Z,337.50
2018-08-11T08:10:25.255Z,466.88
2018-08-11T08:11:25.255Z,2818.13
2018-08-11T08:12:25.256Z,2868.75
2018-08-11T08:13:25.259Z,2818.13
2018-08-11T08:14:25.287Z,2874.38
2018-08-11T08:15:25.265Z,3076.88
2018-08-11T08:16:25.267Z,3020.63
2018-08-11T08:17:25.271Z,2953.13
2018-08-11T08:18:25.275Z,3082.50
2018-08-11T08:19:25.280Z,1676.25
2018-08-11T08:20:25.284Z,3324.38
2018-08-11T08:21:25.289Z,3307.50
2018-08-11T08:22:25.294Z,2896.88
2018-08-11T08:23:25.298Z,534.38
2018-08-11T08:24:25.303Z,461.25
2018-08-11T08:25:25.307Z,444.38
2018-08-11T08:26:25.462Z,421.88
2018-08-11T08:27:25.314Z,438.75
2018-08-11T08:28:25.315Z,416.25
2018-08-11T08:29:25.319Z,1569.38
2018-08-11T08:30:25.319Z,3003.75
2018-08-11T08:31:25.320Z,1440.00
2018-08-11T08:32:25.321Z,2919.38
2018-08-11T08:33:25.323Z,2925.00
2018-08-11T08:34:25.328Z,3020.63
2018-08-11T08:35:25.328Z,3195.00
2018-08-11T08:36:25.331Z,3155.63
2018-08-11T08:37:25.338Z,3093.75
2018-08-11T08:38:25.340Z,3195.00
2018-08-11T08:39:25.344Z,3245.63
2018-08-11T08:40:25.350Z,3150.00
2018-08-11T08:41:25.356Z,3285.00
2018-08-11T08:42:25.362Z,3178.13
2018-08-11T08:43:25.367Z,450.00
2018-08-11T08:44:25.374Z,455.63
2018-08-11T08:45:25.382Z,562.50
2018-08-11T08:46:25.387Z,3245.63
2018-08-11T08:47:25.461Z,3099.38
2018-08-11T08:48:25.396Z,3144.38
2018-08-11T08:49:25.404Z,3105.00
2018-08-11T08:50:25.406Z,3240.00
2018-08-11T08:51:25.411Z,3380.63
2018-08-11T08:52:25.417Z,3369.38
2018-08-11T08:53:25.535Z,3211.88
2018-08-11T08:54:25.430Z,3015.00
2018-08-11T08:55:25.439Z,2604.38
2018-08-11T08:56:25.443Z,3200.63
2018-08-11T08:57:25.451Z,3195.00
2018-08-11T08:58:25.459Z,3341.25
2018-08-11T08:59:25.515Z,3431.25
2018-08-11T09:00:25.473Z,2576.25
2018-08-11T09:01:25.481Z,3138.75
2018-08-11T09:02:25.489Z,2283.75
2018-08-11T09:03:25.496Z,1878.75
2018-08-11T09:04:25.507Z,528.75
2018-08-11T09:05:25.511Z,450.00
2018-08-11T09:06:25.523Z,376.88
2018-08-11T09:07:25.523Z,360.00
2018-08-11T09:08:25.528Z,393.75
2018-08-11T09:09:25.533Z,450.00
2018-08-11T09:10:25.536Z,545.63
2018-08-11T09:11:25.539Z,641.25
2018-08-11T09:12:25.541Z,646.88
2018-08-11T09:13:25.544Z,838.13
2018-08-11T09:14:25.557Z,630.00
2018-08-11T09:15:25.547Z,871.88
2018-08-11T09:16:25.548Z,1040.63
2018-08-11T09:17:25.551Z,3211.88
2018-08-11T09:18:25.552Z,3380.63
2018-08-11T09:19:25.599Z,3307.50
2018-08-11T09:20:25.556Z,3476.25
2018-08-11T09:21:25.559Z,3425.63
2018-08-11T09:22:25.563Z,3526.88
2018-08-11T09:23:25.566Z,3650.63
2018-08-11T09:24:25.574Z,3729.38
2018-08-11T09:25:25.578Z,3735.00
2018-08-11T09:26:25.584Z,3690.00
2018-08-11T09:27:25.590Z,2345.63
2018-08-11T09:28:25.600Z,3825.00
2018-08-11T09:29:25.606Z,3594.38
2018-08-11T09:30:25.613Z,3571.88
2018-08-11T09:31:25.620Z,3650.63
2018-08-11T09:32:25.628Z,3504.38
2018-08-11T09:33:25.636Z,3532.50
2018-08-11T09:34:25.646Z,3780.00
2018-08-11T09:35:25.653Z,1063.13
2018-08-11T09:36:25.662Z,2373.75
2018-08-11T09:37:25.670Z,2655.00
2018-08-11T09:38:25.723Z,1333.13
2018-08-11T09:39:25.686Z,765.00
2018-08-11T09:40:25.695Z,613.13
2018-08-11T09:41:25.702Z,635.63
2018-08-11T09:42:25.711Z,703.13
2018-08-11T09:43:25.713Z,888.75
2018-08-11T09:44:25.719Z,669.38
2018-08-11T09:45:25.727Z,635.63
2018-08-11T09:46:25.728Z,3560.63
2018-08-11T09:47:25.731Z,3369.38
2018-08-11T09:48:25.735Z,3048.75
2018-08-11T09:49:25.739Z,517.50
2018-08-11T09:50:25.744Z,3330.00
2018-08-11T09:51:25.747Z,3307.50
2018-08-11T09:52:25.852Z,3330.00
2018-08-11T09:53:25.756Z,3245.63
2018-08-11T09:54:25.769Z,3256.88
2018-08-11T09:55:25.766Z,3330.00
2018-08-11T09:56:25.773Z,3301.88
2018-08-11T09:57:25.779Z,3245.63
2018-08-11T09:58:25.786Z,3307.50
2018-08-11T09:59:25.797Z,3408.75
2018-08-11T10:00:25.800Z,3256.88
2018-08-11T10:01:25.809Z,495.00
2018-08-11T10:02:25.815Z,3307.50
2018-08-11T10:03:25.823Z,3408.75
2018-08-11T10:04:25.830Z,3526.88
2018-08-11T10:05:25.838Z,3465.00
2018-08-11T10:06:25.846Z,3504.38
2018-08-11T10:07:25.855Z,3448.13
2018-08-11T10:08:25.863Z,3358.13
2018-08-11T10:09:25.871Z,3487.50
2018-08-11T10:10:25.888Z,3549.38
2018-08-11T10:11:25.889Z,3667.50
2018-08-11T10:12:25.899Z,3796.88
2018-08-11T10:13:25.909Z,3082.50
2018-08-11T10:14:25.917Z,1215.00
2018-08-11T10:15:25.926Z,832.50
2018-08-11T10:16:25.936Z,708.75
2018-08-11T10:17:25.944Z,3481.88
2018-08-11T10:18:25.959Z,3380.63
2018-08-11T10:19:25.962Z,3481.88
2018-08-11T10:20:25.971Z,3555.00
2018-08-11T10:21:25.977Z,720.00
2018-08-11T10:22:25.990Z,3571.88
2018-08-11T10:23:25.996Z,3324.38
2018-08-11T10:24:26.003Z,3397.50
2018-08-11T10:25:26.014Z,3510.00
2018-08-11T10:26:26.021Z,3622.50
2018-08-11T10:27:26.030Z,787.50
2018-08-11T10:28:26.038Z,3521.25
2018-08-11T10:29:26.048Z,810.00
2018-08-11T10:30:26.057Z,2581.88
2018-08-11T10:31:26.064Z,3408.75
2018-08-11T10:32:26.072Z,2846.25
2018-08-11T10:33:26.083Z,1231.88
2018-08-11T10:34:26.090Z,1473.75
2018-08-11T10:35:26.097Z,2182.50
2018-08-11T10:36:26.106Z,3746.25
2018-08-11T10:37:26.114Z,3425.63
2018-08-11T10:38:26.122Z,2902.50
2018-08-11T10:39:26.130Z,3076.88
2018-08-11T10:40:26.139Z,3060.00
2018-08-11T10:41:26.149Z,3116.25
2018-08-11T10:42:26.164Z,3352.50
2018-08-11T10:43:26.165Z,3296.25
2018-08-11T10:44:26.183Z,3414.38
2018-08-11T10:45:26.184Z,1850.63
2018-08-11T10:46:26.194Z,742.50
2018-08-11T10:47:26.202Z,725.63
2018-08-11T10:48:26.211Z,748.13
2018-08-11T10:49:26.218Z,725.63
2018-08-11T10:50:26.225Z,2390.63
2018-08-11T10:51:26.230Z,2998.13
2018-08-11T10:52:26.238Z,961.88
2018-08-11T10:53:26.244Z,725.63
2018-08-11T10:54:26.256Z,601.88
2018-08-11T10:55:26.256Z,3313.13
2018-08-11T10:56:26.262Z,2671.88
2018-08-11T10:57:26.268Z,3324.38
2018-08-11T10:58:26.275Z,3121.88
2018-08-11T10:59:26.280Z,3127.50
2018-08-11T11:00:26.286Z,3397.50
2018-08-11T11:01:26.403Z,3414.38
2018-08-11T11:02:26.300Z,3279.38
2018-08-11T11:03:26.308Z,3105.00
2018-08-11T11:04:26.316Z,3330.00
2018-08-11T11:05:26.325Z,3571.88
2018-08-11T11:06:26.334Z,2154.38
2018-08-11T11:07:26.343Z,916.88
2018-08-11T11:08:26.399Z,725.63
2018-08-11T11:09:26.359Z,725.63
2018-08-11T11:10:26.369Z,703.13
2018-08-11T11:11:26.374Z,703.13
2018-08-11T11:12:26.380Z,697.50
2018-08-11T11:13:26.387Z,680.63
2018-08-11T11:14:26.396Z,646.88
2018-08-11T11:15:26.398Z,652.50
2018-08-11T11:16:26.401Z,691.88
2018-08-11T11:17:26.406Z,736.88
2018-08-11T11:18:26.410Z,3223.13
2018-08-11T11:19:26.415Z,3442.50
2018-08-11T11:20:26.417Z,3487.50
2018-08-11T11:21:26.422Z,3425.63
2018-08-11T11:22:26.427Z,3391.88
2018-08-11T11:23:26.433Z,3335.63
2018-08-11T11:24:26.439Z,3465.00
2018-08-11T11:25:26.448Z,3481.88
2018-08-11T11:26:26.453Z,3414.38
2018-08-11T11:27:26.462Z,3453.75
2018-08-11T11:28:26.468Z,3470.63
2018-08-11T11:29:26.479Z,3526.88
2018-08-11T11:30:26.485Z,3616.88
2018-08-11T11:31:26.496Z,3296.25
2018-08-11T11:32:26.503Z,3616.88
2018-08-11T11:33:26.514Z,3560.63
2018-08-11T11:34:26.525Z,3555.00
2018-08-11T11:35:26.540Z,3616.88
2018-08-11T11:36:26.546Z,3740.63
2018-08-11T11:37:26.557Z,911.25
2018-08-11T11:38:26.566Z,731.25
2018-08-11T11:39:26.575Z,680.63
2018-08-11T11:40:26.585Z,652.50
2018-08-11T11:41:26.594Z,658.13
2018-08-11T11:42:26.606Z,680.63
2018-08-11T11:43:26.660Z,708.75
2018-08-11T11:44:26.618Z,1046.25
2018-08-11T11:45:26.622Z,2835.00
2018-08-11T11:46:26.635Z,3391.88
2018-08-11T11:47:26.635Z,3504.38
2018-08-11T11:48:26.641Z,3375.00
2018-08-11T11:49:26.650Z,3313.13
2018-08-11T11:50:26.657Z,770.63
2018-08-11T11:51:26.662Z,686.25
2018-08-11T11:52:26.670Z,697.50
2018-08-11T11:53:26.677Z,3335.63
2018-08-11T11:54:26.685Z,3020.63
2018-08-11T11:55:26.693Z,3391.88
2018-08-11T11:56:26.696Z,669.38
2018-08-11T11:57:26.703Z,675.00
2018-08-11T11:58:26.710Z,691.88
2018-08-11T11:59:26.715Z,3420.00
2018-08-11T12:00:26.727Z,2295.00
2018-08-11T12:01:26.726Z,691.88
2018-08-11T12:02:26.732Z,765.00
2018-08-11T12:03:26.737Z,646.88
2018-08-11T12:04:26.741Z,669.38
2018-08-11T12:05:26.746Z,703.13
2018-08-11T12:06:26.753Z,810.00
2018-08-11T12:07:26.753Z,697.50
2018-08-11T12:08:26.756Z,748.13
2018-08-11T12:09:26.759Z,3121.88
2018-08-11T12:10:26.765Z,3076.88
2018-08-11T12:11:26.767Z,3105.00
2018-08-11T12:12:26.772Z,2992.50
2018-08-11T12:13:26.777Z,2919.38
2018-08-11T12:14:26.783Z,3076.88
2018-08-11T12:15:26.791Z,3116.25
2018-08-11T12:16:26.795Z,748.13
2018-08-11T12:17:26.801Z,725.63
2018-08-11T12:18:26.808Z,832.50
2018-08-11T12:19:26.839Z,860.63
2018-08-11T12:20:26.818Z,759.38
2018-08-11T12:21:26.826Z,742.50
2018-08-11T12:22:26.830Z,742.50
2018-08-11T12:23:26.831Z,770.63
2018-08-11T12:24:26.834Z,849.38
2018-08-11T12:25:26.838Z,911.25
2018-08-11T12:26:26.844Z,1012.50
2018-08-11T12:27:26.843Z,2120.63
2018-08-11T12:28:26.846Z,3408.75
2018-08-11T12:29:26.849Z,3307.50
2018-08-11T12:30:26.853Z,3346.88
2018-08-11T12:31:26.856Z,3403.13
2018-08-11T12:32:26.860Z,3155.63
2018-08-11T12:33:26.866Z,3020.63
2018-08-11T12:34:26.871Z,2885.63
2018-08-11T12:35:26.876Z,2992.50
2018-08-11T12:36:26.882Z,3088.13
2018-08-11T12:37:26.895Z,3150.00
2018-08-11T12:38:26.895Z,3166.88
2018-08-11T12:39:26.901Z,3172.50